Time;durP1;ratioP1;P1;durP2;ratioP2;P2;SDS_P1;SDS_P2;PMS_P1;PMS_P2;Temp;Humidity;BMP_temperature;BMP_pressure;BME280_temperature;BME280_humidity;BME280_pressure;Samples;Min_cycle;Max_cycle;Signal;HPM_P1;HPM_P2
2021/03/14 00:01:52;;;;;;;1.80;0.60;;;2.60;99.90;;;;;;5092940;28;20440;-77
2021/03/14 00:04:18;;;;;;;1.23;0.50;;;2.60;99.90;;;;;;5092839;28;20459;-77
2021/03/14 00:06:44;;;;;;;0.50;0.50;;;2.60;99.90;;;;;;5092792;28;20587;-77
2021/03/14 00:09:11;;;;;;;0.50;0.50;;;2.70;99.90;;;;;;5092828;28;20799;-77
2021/03/14 00:11:38;;;;;;;1.23;0.40;;;2.70;99.90;;;;;;5092827;28;20444;-77
2021/03/14 00:14:04;;;;;;;1.37;0.40;;;2.70;99.90;;;;;;5092820;28;20443;-77
2021/03/14 00:16:30;;;;;;;0.47;0.40;;;2.70;99.90;;;;;;5095301;28;20474;-77
2021/03/14 00:18:56;;;;;;;0.40;0.37;;;2.70;99.90;;;;;;5096382;28;20456;-77
2021/03/14 00:21:23;;;;;;;0.40;0.40;;;2.70;99.90;;;;;;5096315;28;20448;-77
2021/03/14 00:23:49;;;;;;;0.40;0.40;;;2.70;99.90;;;;;;5096197;28;20529;-77
2021/03/14 00:26:16;;;;;;;0.40;0.40;;;2.70;99.90;;;;;;5096146;28;20459;-77
2021/03/14 00:28:43;;;;;;;0.70;0.50;;;2.80;99.90;;;;;;5095894;28;20433;-77
2021/03/14 00:31:09;;;;;;;0.50;0.50;;;2.80;99.90;;;;;;5096104;28;20455;-77
2021/03/14 00:33:35;;;;;;;0.50;0.40;;;2.80;99.90;;;;;;5096105;28;20440;-78
2021/03/14 00:36:01;;;;;;;0.60;0.40;;;2.80;99.90;;;;;;5095977;28;20471;-77
2021/03/14 00:38:28;;;;;;;0.60;0.33;;;2.80;99.90;;;;;;5096055;28;20513;-77
2021/03/14 00:40:54;;;;;;;0.40;0.40;;;2.70;99.90;;;;;;5095928;28;20462;-78
2021/03/14 00:43:20;;;;;;;0.50;0.40;;;2.60;99.90;;;;;;5095827;28;20440;-77
2021/03/14 00:45:47;;;;;;;0.50;0.40;;;2.50;99.90;;;;;;5095770;28;20471;-77
2021/03/14 00:48:14;;;;;;;0.40;0.40;;;2.40;99.90;;;;;;5095523;28;20959;-77
2021/03/14 00:50:42;;;;;;;0.50;0.40;;;2.40;99.90;;;;;;5095500;28;20478;-76
2021/03/14 00:53:09;;;;;;;0.33;0.33;;;2.30;99.90;;;;;;5095707;28;20456;-76
2021/03/14 00:55:35;;;;;;;0.60;0.30;;;2.20;99.90;;;;;;5095582;28;20440;-76
2021/03/14 00:58:02;;;;;;;0.43;0.43;;;2.20;99.90;;;;;;5095318;28;20444;-76
2021/03/14 01:00:28;;;;;;;0.50;0.40;;;2.20;99.90;;;;;;5095542;28;20448;-76
2021/03/14 01:02:55;;;;;;;0.40;0.30;;;2.20;99.90;;;;;;5095526;28;20801;-76
2021/03/14 01:05:22;;;;;;;0.40;0.40;;;2.20;99.90;;;;;;5095320;28;20478;-76
2021/03/14 01:07:48;;;;;;;0.40;0.40;;;2.20;99.90;;;;;;5095421;28;20448;-76
2021/03/14 01:10:15;;;;;;;0.50;0.40;;;2.20;99.90;;;;;;5095052;28;20954;-76
2021/03/14 01:12:42;;;;;;;0.40;0.40;;;2.20;99.90;;;;;;5095344;28;20444;-76
2021/03/14 01:15:11;;;;;;;0.40;0.40;;;2.10;99.90;;;;;;5095261;28;20452;-77
2021/03/14 01:17:38;;;;;;;0.37;0.30;;;2.10;99.90;;;;;;5095158;28;20475;-76
2021/03/14 01:20:08;;;;;;;0.50;0.40;;;2.10;99.90;;;;;;5095153;28;20499;-76
2021/03/14 01:22:34;;;;;;;0.30;0.30;;;2.10;99.90;;;;;;5095445;28;20444;-77
2021/03/14 01:25:01;;;;;;;0.40;0.30;;;2.10;99.90;;;;;;5095002;28;20488;-77
2021/03/14 01:27:27;;;;;;;0.30;0.30;;;2.10;99.90;;;;;;5094897;28;20446;-77
2021/03/14 01:29:53;;;;;;;0.30;0.30;;;2.00;99.90;;;;;;5095095;28;20440;-77
2021/03/14 01:32:20;;;;;;;0.40;0.40;;;2.10;99.90;;;;;;5094873;28;20832;-77
2021/03/14 01:34:48;;;;;;;0.40;0.30;;;2.10;99.90;;;;;;5094613;28;20451;-77
2021/03/14 01:37:15;;;;;;;0.40;0.30;;;2.00;99.90;;;;;;5094514;28;20987;-77
2021/03/14 01:39:41;;;;;;;0.30;0.30;;;2.00;99.90;;;;;;5094845;28;20811;-77
2021/03/14 01:42:08;;;;;;;0.30;0.30;;;2.10;99.90;;;;;;5094450;28;20430;-77
2021/03/14 01:44:34;;;;;;;0.30;0.30;;;2.10;99.90;;;;;;5094632;28;20486;-77
2021/03/14 01:47:01;;;;;;;0.40;0.30;;;2.10;99.90;;;;;;5094310;28;20464;-77
2021/03/14 01:49:27;;;;;;;0.77;0.30;;;2.20;99.90;;;;;;5094281;28;20951;-77
2021/03/14 01:51:53;;;;;;;0.33;0.30;;;2.20;99.90;;;;;;5094142;28;20480;-77
2021/03/14 01:54:20;;;;;;;0.40;0.30;;;2.20;99.90;;;;;;5094551;28;20445;-77
2021/03/14 01:56:47;;;;;;;0.40;0.30;;;2.20;99.90;;;;;;5094114;28;21096;-77
2021/03/14 01:59:13;;;;;;;0.63;0.30;;;2.30;99.90;;;;;;5094127;28;20794;-77
2021/03/14 02:01:41;;;;;;;0.60;0.30;;;2.30;99.90;;;;;;5094398;28;20448;-77
2021/03/14 02:04:07;;;;;;;0.33;0.30;;;2.30;99.90;;;;;;5094271;28;20480;-77
2021/03/14 02:06:33;;;;;;;0.30;0.30;;;2.30;99.90;;;;;;5094229;28;20468;-77
2021/03/14 02:08:59;;;;;;;0.63;0.30;;;2.30;99.90;;;;;;5094262;28;20448;-77
2021/03/14 02:11:29;;;;;;;0.90;0.40;;;2.40;99.90;;;;;;5094218;28;20447;-77
2021/03/14 02:13:58;;;;;;;0.40;0.30;;;2.40;99.90;;;;;;5093874;28;20457;-77
2021/03/14 02:16:29;;;;;;;0.30;0.30;;;2.40;99.90;;;;;;5094075;28;20532;-77
2021/03/14 02:19:00;;;;;;;0.40;0.30;;;2.40;99.90;;;;;;5094441;28;20428;-77
2021/03/14 02:21:26;;;;;;;0.90;0.30;;;2.40;99.90;;;;;;5094082;28;20440;-77
2021/03/14 02:23:59;;;;;;;0.47;0.40;;;2.40;99.90;;;;;;5093951;28;20487;-77
2021/03/14 02:26:29;;;;;;;0.30;0.30;;;2.40;99.90;;;;;;5093640;28;20949;-77
2021/03/14 02:28:57;;;;;;;0.50;0.40;;;2.40;99.90;;;;;;5094030;28;20482;-77
2021/03/14 02:31:25;;;;;;;0.50;0.40;;;2.40;99.90;;;;;;5093897;28;20450;-77
2021/03/14 02:33:56;;;;;;;0.40;0.30;;;2.40;99.90;;;;;;5093855;28;20455;-77
2021/03/14 02:36:24;;;;;;;0.50;0.30;;;2.40;99.90;;;;;;5093495;28;20967;-77
2021/03/14 02:38:51;;;;;;;0.60;0.40;;;2.30;99.90;;;;;;5093267;28;20448;-77
2021/03/14 02:41:18;;;;;;;0.40;0.30;;;2.30;99.90;;;;;;5093710;28;20463;-77
2021/03/14 02:43:46;;;;;;;0.40;0.33;;;2.30;99.90;;;;;;5093357;28;20986;-77
2021/03/14 02:46:13;;;;;;;0.40;0.33;;;2.30;99.90;;;;;;5094137;28;20475;-77
2021/03/14 02:48:41;;;;;;;0.40;0.40;;;2.30;99.90;;;;;;5093631;28;20468;-78
2021/03/14 02:51:08;;;;;;;0.40;0.40;;;2.30;99.90;;;;;;5093042;28;21018;-77
2021/03/14 02:53:36;;;;;;;0.40;0.40;;;2.30;99.90;;;;;;5093621;28;20454;-77
2021/03/14 02:56:03;;;;;;;0.40;0.30;;;2.30;99.90;;;;;;5093459;28;20459;-77
2021/03/14 02:58:31;;;;;;;1.03;0.37;;;2.30;99.90;;;;;;5093532;28;20440;-77
2021/03/14 03:00:58;;;;;;;0.37;0.33;;;2.30;99.90;;;;;;5093350;28;21016;-77
2021/03/14 03:03:26;;;;;;;0.50;0.40;;;2.30;99.90;;;;;;5093463;28;20466;-77
2021/03/14 03:05:56;;;;;;;0.43;0.43;;;2.20;99.90;;;;;;5093390;28;20497;-77
2021/03/14 03:08:24;;;;;;;0.40;0.40;;;2.20;99.90;;;;;;5093509;28;20406;-77
2021/03/14 03:10:50;;;;;;;0.40;0.40;;;2.20;99.90;;;;;;5093364;28;20812;-77
2021/03/14 03:13:17;;;;;;;0.40;0.40;;;2.20;99.90;;;;;;5093061;28;20954;-77
2021/03/14 03:15:45;;;;;;;0.50;0.50;;;2.20;99.90;;;;;;5093289;28;20466;-77
2021/03/14 03:18:13;;;;;;;0.40;0.40;;;2.20;99.90;;;;;;5093022;28;21010;-78
2021/03/14 03:20:41;;;;;;;0.40;0.40;;;2.20;99.90;;;;;;5093387;28;20439;-77
2021/03/14 03:23:08;;;;;;;0.40;0.40;;;2.30;99.90;;;;;;5093327;28;20448;-77
2021/03/14 03:25:35;;;;;;;0.40;0.40;;;2.30;99.90;;;;;;5092787;28;20995;-76
2021/03/14 03:28:01;;;;;;;0.50;0.47;;;2.30;99.90;;;;;;5093216;28;20459;-76
2021/03/14 03:30:29;;;;;;;0.60;0.50;;;2.30;99.90;;;;;;5093259;28;20444;-76
2021/03/14 03:32:56;;;;;;;0.50;0.50;;;2.30;99.90;;;;;;5092893;28;20672;-77
2021/03/14 03:35:24;;;;;;;0.77;0.60;;;2.30;99.90;;;;;;5092795;28;20444;-77
2021/03/14 03:37:51;;;;;;;0.50;0.50;;;2.30;99.90;;;;;;5093131;28;20482;-77
2021/03/14 03:40:21;;;;;;;0.70;0.50;;;2.20;99.90;;;;;;5093144;28;20451;-77
2021/03/14 03:42:57;;;;;;;0.40;0.40;;;2.20;99.90;;;;;;5092959;28;20456;-77
2021/03/14 03:45:24;;;;;;;0.40;0.40;;;2.20;99.90;;;;;;5092684;28;20537;-77
2021/03/14 03:47:52;;;;;;;0.60;0.43;;;2.20;99.90;;;;;;5093079;28;20452;-77
2021/03/14 03:50:20;;;;;;;0.50;0.50;;;2.10;99.90;;;;;;5093635;28;20472;-78
2021/03/14 03:52:48;;;;;;;1.47;0.60;;;2.00;99.90;;;;;;5096953;28;20432;-77
2021/03/14 03:55:17;;;;;;;2.43;0.40;;;2.10;99.90;;;;;;5096857;28;20436;-77
2021/03/14 03:57:44;;;;;;;0.50;0.50;;;2.10;99.90;;;;;;5096729;28;20472;-77
2021/03/14 04:00:15;;;;;;;0.60;0.50;;;2.10;99.90;;;;;;5096798;28;20443;-78
2021/03/14 04:02:43;;;;;;;0.50;0.40;;;2.10;99.90;;;;;;5096762;28;20432;-77
2021/03/14 04:05:11;;;;;;;0.50;0.50;;;2.00;99.90;;;;;;5096550;28;20490;-77
2021/03/14 04:07:39;;;;;;;0.70;0.60;;;2.00;99.90;;;;;;5096562;28;20459;-77
2021/03/14 04:10:09;;;;;;;0.43;0.43;;;1.90;99.90;;;;;;5096259;28;20961;-77
2021/03/14 04:12:37;;;;;;;0.60;0.50;;;1.90;99.90;;;;;;5096559;28;20473;-77
2021/03/14 04:15:06;;;;;;;0.50;0.50;;;1.80;99.90;;;;;;5096429;28;20502;-77
2021/03/14 04:17:32;;;;;;;0.40;0.40;;;1.80;99.90;;;;;;5096390;28;20463;-77
2021/03/14 04:20:01;;;;;;;0.60;0.57;;;1.80;99.90;;;;;;5096345;28;20444;-77
2021/03/14 04:22:28;;;;;;;0.50;0.50;;;1.80;99.90;;;;;;5095986;28;20784;-76
2021/03/14 04:24:56;;;;;;;0.80;0.50;;;1.90;99.90;;;;;;5095910;28;20457;-77
2021/03/14 04:27:23;;;;;;;0.50;0.50;;;1.80;99.90;;;;;;5096154;28;20476;-76
2021/03/14 04:29:51;;;;;;;0.40;0.40;;;1.80;99.90;;;;;;5096223;28;20448;-76
2021/03/14 04:32:18;;;;;;;0.60;0.50;;;1.90;99.90;;;;;;5096083;28;20444;-76
2021/03/14 04:34:46;;;;;;;0.50;0.40;;;1.90;99.90;;;;;;5096133;28;20459;-76
2021/03/14 04:37:13;;;;;;;0.50;0.50;;;2.00;99.90;;;;;;5095961;28;20468;-76
2021/03/14 04:39:40;;;;;;;0.40;0.40;;;2.00;99.90;;;;;;5095989;28;20466;-76
2021/03/14 04:42:07;;;;;;;0.50;0.50;;;1.90;99.90;;;;;;5095975;28;20451;-76
2021/03/14 04:44:34;;;;;;;0.40;0.40;;;1.90;99.90;;;;;;5095826;28;20484;-77
2021/03/14 04:47:01;;;;;;;0.50;0.50;;;1.90;99.90;;;;;;5095785;28;20464;-77
2021/03/14 04:49:27;;;;;;;0.40;0.40;;;2.00;99.90;;;;;;5095486;28;20966;-77
2021/03/14 04:51:54;;;;;;;0.80;0.50;;;1.90;99.90;;;;;;5095413;28;20533;-77
2021/03/14 04:54:21;;;;;;;0.40;0.40;;;1.90;99.90;;;;;;5095714;28;20444;-77
2021/03/14 04:56:49;;;;;;;0.53;0.40;;;1.90;99.90;;;;;;5095292;28;20997;-77
2021/03/14 04:59:16;;;;;;;1.57;0.40;;;1.80;99.90;;;;;;5095607;28;20451;-77
2021/03/14 05:01:45;;;;;;;0.40;0.40;;;1.70;99.90;;;;;;5095132;28;20455;-77
2021/03/14 05:04:15;;;;;;;0.60;0.50;;;1.70;99.90;;;;;;5095476;28;20484;-77
2021/03/14 05:06:43;;;;;;;0.70;0.40;;;1.80;99.90;;;;;;5095417;28;20443;-78
2021/03/14 05:09:12;;;;;;;0.40;0.40;;;1.80;99.90;;;;;;5095110;28;20858;-77
2021/03/14 05:11:41;;;;;;;0.40;0.40;;;1.70;99.90;;;;;;5095383;28;20448;-77
2021/03/14 05:14:09;;;;;;;1.07;0.50;;;1.70;99.90;;;;;;5095020;28;20943;-78
2021/03/14 05:16:36;;;;;;;0.47;0.47;;;1.70;99.90;;;;;;5095228;28;20827;-78
2021/03/14 05:19:04;;;;;;;0.40;0.40;;;1.70;99.90;;;;;;5095287;28;20439;-78
2021/03/14 05:21:32;;;;;;;0.50;0.50;;;1.70;99.90;;;;;;5094910;28;20922;-77
2021/03/14 05:23:59;;;;;;;0.50;0.40;;;1.80;99.90;;;;;;5095058;28;20455;-78
2021/03/14 05:26:26;;;;;;;0.50;0.47;;;1.70;99.90;;;;;;5095039;28;20517;-77
2021/03/14 05:28:56;;;;;;;0.60;0.60;;;1.70;99.90;;;;;;5095041;28;20419;-77
2021/03/14 05:31:29;;;;;;;0.50;0.50;;;1.70;99.90;;;;;;5094995;28;20440;-77
2021/03/14 05:33:57;;;;;;;0.60;0.50;;;1.70;99.90;;;;;;5094996;28;20436;-77
2021/03/14 05:36:24;;;;;;;0.40;0.40;;;1.70;99.90;;;;;;5094820;28;20487;-77
2021/03/14 05:38:51;;;;;;;0.50;0.50;;;1.80;99.90;;;;;;5094549;28;20982;-77
2021/03/14 05:41:17;;;;;;;0.50;0.50;;;1.80;99.90;;;;;;5094768;28;20482;-77
2021/03/14 05:43:44;;;;;;;0.50;0.50;;;1.80;99.90;;;;;;5094687;28;20451;-77
2021/03/14 05:46:11;;;;;;;0.93;0.70;;;1.80;99.90;;;;;;5094364;28;20471;-77
2021/03/14 05:48:37;;;;;;;0.60;0.60;;;1.80;99.90;;;;;;5094697;28;20515;-77
2021/03/14 05:51:04;;;;;;;1.67;0.70;;;1.80;99.90;;;;;;5094186;28;20484;-77
2021/03/14 05:53:31;;;;;;;2.23;0.67;;;1.70;99.90;;;;;;5094294;28;20455;-77
2021/03/14 05:56:00;;;;;;;0.67;0.60;;;1.70;99.90;;;;;;5094428;28;20463;-77
2021/03/14 05:58:26;;;;;;;1.47;0.97;;;1.70;99.90;;;;;;5095055;28;20459;-77
2021/03/14 06:00:53;;;;;;;0.70;0.70;;;1.60;99.90;;;;;;5094470;28;20448;-77
2021/03/14 06:03:20;;;;;;;2.13;0.93;;;1.60;99.90;;;;;;5094060;28;20819;-77
2021/03/14 06:05:47;;;;;;;2.90;0.70;;;1.60;99.90;;;;;;5093898;28;20542;-77
2021/03/14 06:08:13;;;;;;;1.43;0.70;;;1.70;99.90;;;;;;5094020;28;20451;-77
2021/03/14 06:10:39;;;;;;;2.27;0.90;;;1.70;99.90;;;;;;5094261;28;20455;-77
2021/03/14 06:13:07;;;;;;;1.77;0.90;;;1.70;99.90;;;;;;5093447;28;20448;-77
2021/03/14 06:15:33;;;;;;;1.67;0.90;;;1.70;99.90;;;;;;5093780;28;20444;-77
2021/03/14 06:18:01;;;;;;;2.37;1.07;;;1.80;99.90;;;;;;5094113;28;20448;-77
2021/03/14 06:20:35;;;;;;;0.80;0.80;;;1.80;99.90;;;;;;5094096;28;20501;-77
2021/03/14 06:23:07;;;;;;;4.30;1.17;;;1.80;99.90;;;;;;5094055;28;20451;-77
2021/03/14 06:25:33;;;;;;;1.63;0.80;;;1.80;99.90;;;;;;5093900;28;20475;-77
2021/03/14 06:27:59;;;;;;;1.17;1.07;;;1.90;99.90;;;;;;5093956;28;20781;-77
2021/03/14 06:30:29;;;;;;;2.40;0.77;;;1.80;99.90;;;;;;5093913;28;20425;-77
2021/03/14 06:33:03;;;;;;;1.27;0.87;;;1.80;99.90;;;;;;5093862;28;20508;-77
2021/03/14 06:35:41;;;;;;;1.40;0.93;;;1.80;99.90;;;;;;5093754;28;20450;-77
2021/03/14 06:38:26;;;;;;;4.70;0.80;;;1.80;99.90;;;;;;5093890;28;20411;-77
2021/03/14 06:41:09;;;;;;;2.30;1.00;;;1.90;99.90;;;;;;5093800;28;20432;-77
2021/03/14 06:43:39;;;;;;;1.93;0.90;;;2.10;99.90;;;;;;5093481;28;20427;-77
2021/03/14 06:46:18;;;;;;;4.20;0.93;;;2.20;99.90;;;;;;5094417;28;20880;-77
2021/03/14 06:48:44;;;;;;;1.93;1.17;;;2.40;99.90;;;;;;5093719;28;20428;-77
2021/03/14 06:51:11;;;;;;;0.83;0.83;;;2.40;99.90;;;;;;5093174;28;21056;-77
2021/03/14 06:53:37;;;;;;;0.60;0.60;;;2.40;99.90;;;;;;5093578;28;20444;-77
2021/03/14 06:56:05;;;;;;;0.90;0.70;;;2.50;99.90;;;;;;5093159;28;20975;-77
2021/03/14 06:58:33;;;;;;;1.13;0.90;;;2.50;99.90;;;;;;5093495;28;20455;-77
2021/03/14 07:01:14;;;;;;;0.90;0.80;;;2.60;99.90;;;;;;5093500;28;20521;-77
2021/03/14 07:03:43;;;;;;;1.97;0.90;;;2.60;99.90;;;;;;5093502;28;20439;-77
2021/03/14 07:06:21;;;;;;;1.67;1.10;;;2.60;99.90;;;;;;5093288;28;20495;-77
2021/03/14 07:08:50;;;;;;;3.17;0.90;;;2.60;99.90;;;;;;5093179;28;21016;-77
2021/03/14 07:11:38;;;;;;;2.17;0.70;;;2.60;99.90;;;;;;5093389;28;20830;-77
2021/03/14 07:14:05;;;;;;;2.63;0.90;;;2.70;99.90;;;;;;5093186;28;20907;-77
2021/03/14 07:16:46;;;;;;;1.30;0.80;;;2.80;99.90;;;;;;5093111;28;21005;-77
2021/03/14 07:19:22;;;;;;;3.63;0.90;;;3.00;99.90;;;;;;5093086;28;20948;-77
2021/03/14 07:22:02;;;;;;;0.77;0.77;;;2.90;99.90;;;;;;5093323;28;20447;-77
2021/03/14 07:24:30;;;;;;;1.37;0.87;;;3.00;99.90;;;;;;5094398;28;20463;-77
2021/03/14 07:26:57;;;;;;;1.40;1.10;;;3.10;99.90;;;;;;5097314;28;20470;-77
2021/03/14 07:29:25;;;;;;;1.30;0.90;;;3.20;99.90;;;;;;5097382;28;20444;-77
2021/03/14 07:31:52;;;;;;;6.33;0.97;;;3.20;99.90;;;;;;5097322;28;20444;-77
2021/03/14 07:34:18;;;;;;;3.43;1.10;;;3.20;99.90;;;;;;5097023;28;20957;-77
2021/03/14 07:36:45;;;;;;;1.60;0.70;;;3.20;99.90;;;;;;5097217;28;20438;-78
2021/03/14 07:39:12;;;;;;;4.30;1.07;;;3.30;99.90;;;;;;5097245;28;20472;-78
2021/03/14 07:41:38;;;;;;;1.77;0.80;;;3.30;99.90;;;;;;5097167;28;20448;-78
2021/03/14 07:44:07;;;;;;;4.77;0.93;;;3.20;99.90;;;;;;5096745;28;20454;-77
2021/03/14 07:46:34;;;;;;;2.37;1.10;;;3.10;99.90;;;;;;5096978;28;20460;-77
2021/03/14 07:49:03;;;;;;;1.77;0.93;;;2.90;99.90;;;;;;5096993;28;20443;-77
2021/03/14 07:51:32;;;;;;;1.53;0.87;;;2.90;99.90;;;;;;5096540;28;20486;-77
2021/03/14 07:54:04;;;;;;;1.63;1.00;;;2.80;99.90;;;;;;5096862;28;20444;-77
2021/03/14 07:56:37;;;;;;;2.07;1.10;;;2.80;99.90;;;;;;5096526;28;20459;-77
2021/03/14 07:59:04;;;;;;;0.87;0.80;;;2.80;99.90;;;;;;5096819;28;20432;-77
2021/03/14 08:01:32;;;;;;;1.10;0.90;;;2.80;99.90;;;;;;5096513;28;20466;-77
2021/03/14 08:03:59;;;;;;;3.90;1.03;;;3.10;99.90;;;;;;5096665;28;20501;-76
2021/03/14 08:06:59;;;;;;;1.60;0.70;;;3.40;99.90;;;;;;5096581;28;20470;-76
2021/03/14 08:09:46;;;;;;;2.23;0.83;;;3.70;99.90;;;;;;5014379;28;20775;-76
2021/03/14 08:12:22;;;;;;;2.80;0.80;;;3.90;99.90;;;;;;5012821;28;20509;-76
2021/03/14 08:14:50;;;;;;;2.90;0.87;;;4.10;99.90;;;;;;5067844;28;20446;-76
2021/03/14 08:17:21;;;;;;;1.63;0.80;;;4.30;99.90;;;;;;5096392;28;20532;-76
2021/03/14 08:19:49;;;;;;;1.30;0.80;;;4.40;99.90;;;;;;5096317;28;20431;-76
2021/03/14 08:22:47;;;;;;;2.00;0.70;;;4.60;99.90;;;;;;5096354;28;20444;-76
2021/03/14 08:25:19;;;;;;;3.43;1.13;;;4.60;99.90;;;;;;5096283;28;20468;-76
2021/03/14 08:27:46;;;;;;;3.30;0.90;;;4.60;99.90;;;;;;5095824;28;20975;-76
2021/03/14 08:30:44;;;;;;;5.53;1.00;;;4.70;99.90;;;;;;5096209;28;20447;-76
2021/03/14 08:33:38;;;;;;;1.57;0.90;;;4.90;99.90;;;;;;5096154;28;20440;-76
2021/03/14 08:36:06;;;;;;;4.70;0.70;;;5.30;99.90;;;;;;5095199;28;20518;-76
2021/03/14 08:38:42;;;;;;;3.43;1.10;;;5.40;99.90;;;;;;5096049;28;20452;-76
2021/03/14 08:41:33;;;;;;;1.50;0.77;;;5.50;99.90;;;;;;5096046;28;20434;-76
2021/03/14 08:44:04;;;;;;;2.50;0.70;;;5.60;99.90;;;;;;5095969;28;20428;-76
2021/03/14 08:47:06;;;;;;;1.20;0.53;;;5.50;99.90;;;;;;5095860;28;20533;-76
2021/03/14 08:49:35;;;;;;;1.00;0.90;;;5.40;99.90;;;;;;5095910;28;20847;-76
2021/03/14 08:52:01;;;;;;;0.90;0.80;;;5.30;99.90;;;;;;5095254;28;20479;-76
2021/03/14 08:54:32;;;;;;;3.50;0.80;;;5.30;99.90;;;;;;5095404;28;20439;-76
2021/03/14 08:57:00;;;;;;;1.43;0.60;;;5.20;99.90;;;;;;5095685;28;20475;-76
2021/03/14 08:59:26;;;;;;;1.87;0.60;;;4.90;99.90;;;;;;5095672;28;20439;-76
2021/03/14 09:01:55;;;;;;;0.80;0.70;;;4.80;99.90;;;;;;5095585;28;20444;-76
2021/03/14 09:04:23;;;;;;;2.63;0.87;;;4.80;99.90;;;;;;5095173;28;20950;-76
2021/03/14 09:06:50;;;;;;;1.90;0.70;;;4.90;99.90;;;;;;5095425;28;20468;-76
2021/03/14 09:09:18;;;;;;;4.10;0.60;;;4.90;99.90;;;;;;5095435;28;20448;-76
2021/03/14 09:11:47;;;;;;;0.90;0.60;;;5.10;99.90;;;;;;5095377;28;20534;-76
2021/03/14 09:14:28;;;;;;;0.80;0.60;;;5.10;99.90;;;;;;5095405;28;20498;-76
2021/03/14 09:16:56;;;;;;;0.60;0.60;;;5.10;99.90;;;;;;5095265;28;20470;-76
2021/03/14 09:19:25;;;;;;;2.17;0.80;;;4.90;99.90;;;;;;5095274;28;20455;-76
2021/03/14 09:21:53;;;;;;;1.47;0.70;;;4.50;99.90;;;;;;5094908;28;20459;-76
2021/03/14 09:24:42;;;;;;;0.70;0.70;;;4.50;99.90;;;;;;5095090;28;20538;-76
2021/03/14 09:27:11;;;;;;;0.83;0.70;;;4.50;99.90;;;;;;5089024;28;20480;-76
2021/03/14 09:29:47;;;;;;;5.60;0.70;;;4.50;99.90;;;;;;5094751;28;20505;-76
2021/03/14 09:32:22;;;;;;;1.17;0.70;;;4.40;99.90;;;;;;5095049;28;20423;-76
2021/03/14 09:34:50;;;;;;;1.80;0.73;;;4.40;99.90;;;;;;5095506;28;20429;-76
2021/03/14 09:37:29;;;;;;;1.10;1.00;;;4.40;99.90;;;;;;5094835;28;20467;-76
2021/03/14 09:40:15;;;;;;;2.00;0.70;;;4.50;99.90;;;;;;5094851;28;20450;-76
2021/03/14 09:42:44;;;;;;;1.23;0.80;;;5.90;99.90;;;;;;5094519;28;20410;-76
2021/03/14 09:45:13;;;;;;;0.90;0.50;;;8.40;99.90;;;;;;5094402;28;21003;-76
2021/03/14 09:48:02;;;;;;;0.90;0.60;;;10.20;99.90;;;;;;5094323;28;20471;-77
2021/03/14 09:50:30;;;;;;;3.63;0.60;;;11.60;99.90;;;;;;5094219;28;20516;-82
2021/03/14 09:52:59;;;;;;;1.53;1.17;;;11.30;99.90;;;;;;5094565;28;20436;-82
2021/03/14 09:55:28;;;;;;;0.70;0.50;;;10.80;99.90;;;;;;5094435;28;20444;-81
2021/03/14 09:57:55;;;;;;;1.00;0.90;;;9.40;99.60;;;;;;5094476;28;20470;-82
2021/03/14 10:00:24;;;;;;;0.97;0.60;;;8.80;99.90;;;;;;5094424;28;20428;-82
2021/03/14 10:02:50;;;;;;;1.00;0.73;;;8.50;99.90;;;;;;5094359;28;20428;-81
2021/03/14 10:05:17;;;;;;;2.40;2.20;;;8.20;99.90;;;;;;5094351;28;20487;-82
2021/03/14 10:07:43;;;;;;;1.17;0.67;;;7.90;99.90;;;;;;5093972;28;21005;-82
2021/03/14 10:10:11;;;;;;;1.63;0.80;;;7.80;99.90;;;;;;5094319;28;20481;-81
2021/03/14 10:12:38;;;;;;;1.50;0.60;;;7.50;99.90;;;;;;5094258;28;20454;-82
2021/03/14 10:15:08;;;;;;;0.50;0.50;;;7.30;99.90;;;;;;5094208;28;20428;-81
2021/03/14 10:17:37;;;;;;;2.30;0.70;;;7.00;99.90;;;;;;5093893;28;20461;-82
2021/03/14 10:20:05;;;;;;;1.00;0.80;;;6.90;99.90;;;;;;5094123;28;20505;-82
2021/03/14 10:22:32;;;;;;;0.73;0.73;;;6.70;99.90;;;;;;5093696;28;20432;-81
2021/03/14 10:24:58;;;;;;;2.00;0.70;;;6.70;99.90;;;;;;5093503;28;20990;-81
2021/03/14 10:27:27;;;;;;;2.90;0.60;;;6.50;99.90;;;;;;5093823;28;20460;-81
2021/03/14 10:29:57;;;;;;;0.80;0.53;;;6.40;99.90;;;;;;5093735;28;20433;-82
2021/03/14 10:32:27;;;;;;;2.73;0.60;;;6.50;99.90;;;;;;5093504;28;20994;-81
2021/03/14 10:34:56;;;;;;;1.93;0.50;;;6.30;99.90;;;;;;5093464;28;20439;-81
2021/03/14 10:37:30;;;;;;;5.03;0.70;;;6.30;99.90;;;;;;5093422;28;20476;-83
2021/03/14 10:40:01;;;;;;;1.00;0.77;;;6.40;99.90;;;;;;5093608;28;20443;-82
2021/03/14 10:42:29;;;;;;;2.90;1.00;;;6.60;99.90;;;;;;5093589;28;20440;-82
2021/03/14 10:45:01;;;;;;;3.90;1.23;;;6.60;99.90;;;;;;5093113;28;20479;-82
2021/03/14 10:47:29;;;;;;;1.33;0.50;;;6.60;99.90;;;;;;5093471;28;20460;-82
2021/03/14 10:50:10;;;;;;;1.93;1.00;;;6.80;99.90;;;;;;5093572;28;20456;-82
2021/03/14 10:52:36;;;;;;;1.87;0.90;;;6.90;99.90;;;;;;5093531;28;20427;-81
2021/03/14 10:55:18;;;;;;;1.40;0.70;;;7.00;99.90;;;;;;5093619;28;20490;-82
2021/03/14 10:57:44;;;;;;;1.90;0.70;;;7.20;99.90;;;;;;5092468;28;20486;-82
2021/03/14 11:00:14;;;;;;;1.70;0.80;;;7.50;99.90;;;;;;5092963;28;20417;-82
2021/03/14 11:02:42;;;;;;;2.10;0.90;;;7.60;99.90;;;;;;5093327;28;20432;-82
2021/03/14 11:05:10;;;;;;;0.80;0.80;;;8.10;99.90;;;;;;5093190;28;20472;-82
2021/03/14 11:07:37;;;;;;;1.10;1.00;;;8.10;99.90;;;;;;5093340;28;20467;-82
2021/03/14 11:10:11;;;;;;;3.43;1.13;;;8.10;99.90;;;;;;5093287;28;20432;-82
2021/03/14 11:12:40;;;;;;;2.83;0.80;;;8.10;99.90;;;;;;5093191;28;20431;-82
2021/03/14 11:15:08;;;;;;;0.80;0.70;;;7.90;99.90;;;;;;5093167;28;20420;-82
2021/03/14 11:17:36;;;;;;;1.10;0.83;;;7.80;99.90;;;;;;5093009;28;20464;-82
2021/03/14 11:20:07;;;;;;;1.27;0.73;;;7.90;99.90;;;;;;5093293;28;20436;-82
2021/03/14 11:22:33;;;;;;;2.60;1.00;;;8.00;99.90;;;;;;5092925;28;20424;-82
2021/03/14 11:24:59;;;;;;;1.70;0.80;;;8.30;99.90;;;;;;5092891;28;20468;-83
2021/03/14 11:27:26;;;;;;;1.17;0.90;;;8.60;99.90;;;;;;5093049;28;20463;-82
2021/03/14 11:29:52;;;;;;;1.20;1.10;;;8.70;99.90;;;;;;5093085;28;20436;-82
2021/03/14 11:32:18;;;;;;;1.00;0.70;;;8.60;99.90;;;;;;5092886;28;20424;-82
2021/03/14 11:34:46;;;;;;;1.03;0.60;;;8.60;99.90;;;;;;5093086;28;20437;-82
2021/03/14 11:37:15;;;;;;;1.33;1.00;;;8.60;99.90;;;;;;5092606;28;20467;-82
2021/03/14 11:39:41;;;;;;;1.00;0.90;;;8.60;99.90;;;;;;5093089;28;20432;-82
2021/03/14 11:42:09;;;;;;;3.27;0.93;;;8.50;99.90;;;;;;5092952;28;20432;-82
2021/03/14 11:44:36;;;;;;;0.97;0.60;;;8.30;99.90;;;;;;5092855;28;20428;-82
2021/03/14 11:47:02;;;;;;;2.20;0.90;;;8.30;99.90;;;;;;5092963;28;20472;-82
2021/03/14 11:49:28;;;;;;;1.70;1.30;;;8.00;99.90;;;;;;5093042;28;20443;-82
2021/03/14 11:51:55;;;;;;;1.77;1.10;;;7.80;99.90;;;;;;5092491;28;20483;-82
2021/03/14 11:54:22;;;;;;;2.20;1.10;;;7.70;99.90;;;;;;5093511;28;20440;-82
2021/03/14 11:56:49;;;;;;;3.87;0.80;;;7.70;99.90;;;;;;5092431;28;20464;-82
2021/03/14 11:59:16;;;;;;;2.30;0.90;;;7.70;99.90;;;;;;5092944;28;20435;-82
2021/03/14 12:01:43;;;;;;;2.17;1.30;;;7.50;99.90;;;;;;5092483;28;20920;-82
2021/03/14 12:04:09;;;;;;;1.97;0.77;;;7.30;99.90;;;;;;5092606;28;20932;-82
2021/03/14 12:06:36;;;;;;;5.23;1.00;;;7.20;99.90;;;;;;5092750;28;20495;-82
2021/03/14 12:09:04;;;;;;;4.67;1.30;;;7.00;99.90;;;;;;5092915;28;20424;-82
2021/03/14 12:11:33;;;;;;;3.10;1.37;;;7.00;99.90;;;;;;5094639;28;20436;-82
2021/03/14 12:14:00;;;;;;;1.37;0.93;;;6.80;99.90;;;;;;5096054;28;20912;-82
2021/03/14 12:16:26;;;;;;;1.23;1.13;;;6.70;99.90;;;;;;5096218;28;20467;-82
2021/03/14 12:18:52;;;;;;;3.53;1.07;;;6.60;99.90;;;;;;5096410;28;20428;-82
2021/03/14 12:21:19;;;;;;;0.93;0.80;;;6.40;99.90;;;;;;5096002;28;20915;-82
2021/03/14 12:23:45;;;;;;;2.00;0.87;;;6.30;99.90;;;;;;5096036;28;20771;-83
2021/03/14 12:26:12;;;;;;;1.90;0.90;;;6.20;99.90;;;;;;5096088;28;20488;-83
2021/03/14 12:28:39;;;;;;;4.87;1.30;;;6.00;99.90;;;;;;5095897;28;20467;-82
2021/03/14 12:31:05;;;;;;;1.77;0.87;;;5.80;99.90;;;;;;5096314;28;20489;-82
2021/03/14 12:33:32;;;;;;;1.00;0.90;;;5.70;99.90;;;;;;5096091;28;20437;-82
2021/03/14 12:35:59;;;;;;;1.07;0.70;;;5.70;99.90;;;;;;5095980;28;20460;-82
2021/03/14 12:38:25;;;;;;;4.13;1.40;;;5.60;99.90;;;;;;5096017;28;20428;-82
2021/03/14 12:40:53;;;;;;;0.70;0.70;;;5.50;99.90;;;;;;5095642;28;20428;-82
2021/03/14 12:43:20;;;;;;;1.27;0.70;;;5.40;99.90;;;;;;5096019;28;20438;-82
2021/03/14 12:45:49;;;;;;;3.00;0.80;;;5.40;99.90;;;;;;5095707;28;20488;-82
2021/03/14 12:48:16;;;;;;;1.50;0.73;;;5.30;99.90;;;;;;5095927;28;20436;-82
2021/03/14 12:50:42;;;;;;;1.50;0.90;;;5.20;99.90;;;;;;5095442;28;20486;-82
2021/03/14 12:53:09;;;;;;;2.53;1.03;;;5.20;99.90;;;;;;5095711;28;20454;-82
2021/03/14 12:55:35;;;;;;;1.10;0.90;;;5.40;99.90;;;;;;5095531;28;20420;-83
2021/03/14 12:58:01;;;;;;;5.67;1.40;;;5.50;99.90;;;;;;5095512;28;20436;-83
2021/03/14 13:00:28;;;;;;;0.90;0.90;;;5.50;99.90;;;;;;5096053;28;20429;-84
2021/03/14 13:02:55;;;;;;;2.10;1.00;;;5.50;99.90;;;;;;5095494;28;20481;-83
2021/03/14 13:05:21;;;;;;;2.83;0.90;;;5.60;99.90;;;;;;5095491;28;20472;-83
2021/03/14 13:07:48;;;;;;;4.00;1.23;;;5.70;99.90;;;;;;5095245;28;20480;-83